createdAt,value
2022-12-16T00:01:55.779Z,29.80
2022-12-16T00:04:23.827Z,28.50
2022-12-16T00:06:52.044Z,27.95
2022-12-16T00:09:21.262Z,28.92
2022-12-16T00:11:49.844Z,28.55
2022-12-16T00:14:18.056Z,27.60
2022-12-16T00:16:47.721Z,26.83
2022-12-16T00:19:15.816Z,28.58
2022-12-16T00:21:43.816Z,29.40
2022-12-16T00:24:11.867Z,30.23
2022-12-16T00:26:40.265Z,29.17
2022-12-16T00:29:10.987Z,30.52
2022-12-16T00:31:39.083Z,28.92
2022-12-16T00:34:08.437Z,29.13
2022-12-16T00:36:36.516Z,29.20
2022-12-16T00:39:04.875Z,27.73
2022-12-16T00:41:33.205Z,28.33
2022-12-16T00:44:01.072Z,27.30
2022-12-16T00:46:29.220Z,28.38
2022-12-16T00:48:57.084Z,29.50
2022-12-16T00:51:26.377Z,27.95
2022-12-16T00:53:54.082Z,25.98
2022-12-16T00:56:22.118Z,27.90
2022-12-16T00:58:50.466Z,25.77
2022-12-16T01:01:19.047Z,26.73
2022-12-16T01:03:47.424Z,27.20
2022-12-16T01:06:17.816Z,26.95
2022-12-16T01:08:49.019Z,28.65
2022-12-16T01:11:17.449Z,27.08
2022-12-16T01:13:48.138Z,26.60
2022-12-16T01:16:18.514Z,27.58
2022-12-16T01:18:46.570Z,28.42
2022-12-16T01:21:16.713Z,29.08
2022-12-16T01:23:46.360Z,31.65
2022-12-16T01:26:18.409Z,28.10
2022-12-16T01:28:47.632Z,26.75
2022-12-16T01:31:17.555Z,27.92
2022-12-16T01:33:45.916Z,29.08
2022-12-16T01:36:14.128Z,29.55
2022-12-16T01:38:44.391Z,26.67
2022-12-16T01:41:15.335Z,28.40
2022-12-16T01:43:44.458Z,26.92
2022-12-16T01:46:21.256Z,29.58
2022-12-16T01:48:55.063Z,28.98
2022-12-16T01:51:28.420Z,29.20
2022-12-16T01:54:01.909Z,29.17
2022-12-16T01:56:34.892Z,27.83
2022-12-16T01:59:04.615Z,30.40
2022-12-16T02:01:33.127Z,29.10
2022-12-16T02:04:04.365Z,29.77
2022-12-16T02:06:33.558Z,29.33
2022-12-16T02:09:04.431Z,28.58
2022-12-16T02:11:49.003Z,28.17
2022-12-16T02:14:43.123Z,30.80
2022-12-16T02:17:20.756Z,28.45
2022-12-16T02:20:16.574Z,29.17
2022-12-16T02:23:00.632Z,29.17
2022-12-16T02:25:48.625Z,27.42
2022-12-16T02:28:36.068Z,28.85
2022-12-16T02:31:21.490Z,29.73
2022-12-16T02:36:32.940Z,28.35
2022-12-16T02:39:06.621Z,29.92
2022-12-16T02:41:44.350Z,29.55
2022-12-16T02:44:14.567Z,30.27
2022-12-16T02:46:46.164Z,29.05
2022-12-16T02:49:53.264Z,28.83
2022-12-16T02:52:24.552Z,29.60
2022-12-16T02:54:57.256Z,29.85
2022-12-16T02:57:51.978Z,28.10
2022-12-16T03:00:25.057Z,29.77
2022-12-16T03:03:02.652Z,29.98
2022-12-16T03:05:34.645Z,30.20
2022-12-16T03:08:07.743Z,31.00
2022-12-16T03:10:40.323Z,30.33
2022-12-16T03:13:09.814Z,30.92
2022-12-16T03:15:37.749Z,31.20
2022-12-16T03:18:10.674Z,31.85
2022-12-16T03:20:45.493Z,30.80
2022-12-16T03:23:18.002Z,29.38
2022-12-16T03:25:48.921Z,31.50
2022-12-16T03:28:29.436Z,30.48
2022-12-16T03:31:05.082Z,30.58
2022-12-16T03:33:39.846Z,30.20
2022-12-16T03:36:14.337Z,29.73
2022-12-16T03:38:45.648Z,33.47
2022-12-16T03:41:14.658Z,33.85
2022-12-16T03:43:42.614Z,32.00
2022-12-16T03:46:11.886Z,30.13
2022-12-16T03:48:46.770Z,29.75
2022-12-16T03:51:15.185Z,30.73
2022-12-16T03:53:43.864Z,30.00
2022-12-16T03:56:12.743Z,32.90
2022-12-16T03:58:41.546Z,34.92
2022-12-16T04:01:10.943Z,32.83
2022-12-16T04:03:39.393Z,33.55
2022-12-16T04:06:12.543Z,35.25
2022-12-16T04:08:42.638Z,34.20
2022-12-16T04:11:28.125Z,31.33
2022-12-16T04:16:59.206Z,38.33
2022-12-16T04:19:49.664Z,37.35
2022-12-16T04:22:41.174Z,38.08
2022-12-16T04:25:13.726Z,38.58
2022-12-16T04:27:47.319Z,39.72
2022-12-16T04:30:22.711Z,41.05
2022-12-16T04:33:15.478Z,40.78
2022-12-16T04:36:01.328Z,40.25
2022-12-16T04:38:48.752Z,39.42
2022-12-16T04:41:46.004Z,43.28
2022-12-16T04:44:32.152Z,41.65
2022-12-16T04:47:18.508Z,43.15
2022-12-16T04:50:07.320Z,41.95
2022-12-16T04:52:52.843Z,43.30
2022-12-16T04:58:25.877Z,40.72
2022-12-16T05:01:11.166Z,43.83
2022-12-16T05:03:56.948Z,44.08
2022-12-16T05:06:42.478Z,40.88
2022-12-16T05:12:11.136Z,42.33
2022-12-16T05:14:57.082Z,40.92
2022-12-16T05:17:43.329Z,41.75
2022-12-16T05:20:29.966Z,43.63
2022-12-16T05:23:15.945Z,43.70
2022-12-16T05:26:02.312Z,43.72
2022-12-16T05:28:49.140Z,42.63
2022-12-16T05:31:35.195Z,43.30
2022-12-16T05:34:21.192Z,44.83
2022-12-16T05:37:18.331Z,47.40
2022-12-16T05:40:03.997Z,44.55
2022-12-16T05:42:50.046Z,40.30
2022-12-16T05:45:37.179Z,42.45
2022-12-16T05:48:22.851Z,42.65
2022-12-16T05:51:07.998Z,42.38
2022-12-16T05:53:53.406Z,39.60
2022-12-16T05:56:38.873Z,40.83
2022-12-16T05:59:24.605Z,38.78
2022-12-16T06:02:11.704Z,37.65
2022-12-16T06:04:56.751Z,38.78
2022-12-16T06:07:41.944Z,38.85
2022-12-16T06:10:33.370Z,37.95
2022-12-16T06:13:19.331Z,40.53
2022-12-16T06:16:08.642Z,38.22
2022-12-16T06:18:56.253Z,41.40
2022-12-16T06:21:41.856Z,36.33
2022-12-16T06:27:12.820Z,32.27
2022-12-16T06:29:58.194Z,37.58
2022-12-16T06:32:43.820Z,36.63
2022-12-16T06:35:34.235Z,36.08
2022-12-16T06:38:19.747Z,35.13
2022-12-16T06:41:05.479Z,35.78
2022-12-16T06:43:50.514Z,35.35
2022-12-16T06:46:35.991Z,33.45
2022-12-16T06:49:21.182Z,37.42
2022-12-16T06:52:20.785Z,32.10
2022-12-16T06:55:05.860Z,34.67
2022-12-16T06:57:51.585Z,32.50
2022-12-16T07:00:37.198Z,32.35
2022-12-16T07:06:11.368Z,31.27
2022-12-16T07:08:58.154Z,31.25
2022-12-16T07:11:43.277Z,35.78
2022-12-16T07:14:28.843Z,38.67
2022-12-16T07:17:25.645Z,35.83
2022-12-16T07:20:11.567Z,31.75
2022-12-16T07:23:08.401Z,30.73
2022-12-16T07:25:59.147Z,32.60
2022-12-16T07:28:44.500Z,32.10
2022-12-16T07:31:30.107Z,29.77
2022-12-16T07:36:59.550Z,30.00
2022-12-16T07:39:54.816Z,30.75
2022-12-16T07:42:42.369Z,30.48
2022-12-16T07:45:28.471Z,29.05
2022-12-16T07:48:14.755Z,28.40
2022-12-16T07:51:00.439Z,28.17
2022-12-16T07:53:46.288Z,26.73
2022-12-16T07:56:31.514Z,27.98
2022-12-16T07:59:18.253Z,25.67
2022-12-16T08:02:03.468Z,24.98
2022-12-16T08:04:49.519Z,27.02
2022-12-16T08:07:34.721Z,27.13
2022-12-16T08:10:20.316Z,25.80
2022-12-16T08:15:52.180Z,26.80
2022-12-16T08:18:38.692Z,26.80
2022-12-16T08:21:24.490Z,26.58
2022-12-16T08:24:09.895Z,26.45
2022-12-16T08:26:55.346Z,29.90
2022-12-16T08:32:32.845Z,27.58
2022-12-16T08:35:18.321Z,30.23
2022-12-16T08:38:07.604Z,31.50
2022-12-16T08:40:57.306Z,29.40
2022-12-16T08:43:42.710Z,29.00
2022-12-16T08:46:28.577Z,42.08
2022-12-16T08:52:01.592Z,32.85
2022-12-16T08:57:32.022Z,32.92
2022-12-16T09:03:03.967Z,33.05
2022-12-16T09:05:50.868Z,33.35
2022-12-16T09:08:36.798Z,33.22
2022-12-16T09:11:22.149Z,31.90
2022-12-16T09:14:07.790Z,33.47
2022-12-16T09:16:53.696Z,34.20
2022-12-16T09:19:42.326Z,32.38
2022-12-16T09:22:29.036Z,31.50
2022-12-16T09:25:19.952Z,31.05
2022-12-16T09:28:07.874Z,28.38
2022-12-16T09:30:54.577Z,29.70
2022-12-16T09:33:40.854Z,29.80
2022-12-16T09:36:38.597Z,30.38
2022-12-16T09:39:25.830Z,28.92
2022-12-16T09:42:20.510Z,29.52
2022-12-16T09:45:15.118Z,30.15
2022-12-16T09:48:13.591Z,33.42
2022-12-16T09:51:01.640Z,30.92
2022-12-16T09:53:51.043Z,29.70
2022-12-16T09:56:43.936Z,28.48
2022-12-16T09:59:32.837Z,31.23
2022-12-16T10:02:18.731Z,31.02
2022-12-16T10:05:09.897Z,32.25
2022-12-16T10:08:00.877Z,30.05
2022-12-16T10:11:13.261Z,28.45
2022-12-16T10:14:15.985Z,28.20
2022-12-16T10:17:15.302Z,30.83
2022-12-16T10:20:13.191Z,27.35
2022-12-16T10:23:08.266Z,26.90
2022-12-16T10:28:58.871Z,27.38
2022-12-16T10:31:57.541Z,26.98
2022-12-16T10:34:47.718Z,27.25
2022-12-16T10:37:39.325Z,28.33
2022-12-16T10:40:26.497Z,29.80
2022-12-16T10:43:22.587Z,27.90
2022-12-16T10:46:12.098Z,27.05
2022-12-16T10:48:58.145Z,26.73
2022-12-16T10:51:47.608Z,28.50
2022-12-16T10:54:44.527Z,28.48
2022-12-16T10:57:37.953Z,27.45
2022-12-16T11:00:32.575Z,28.85
2022-12-16T11:03:48.250Z,26.88
2022-12-16T11:06:39.430Z,26.65
2022-12-16T11:10:00.754Z,26.67
2022-12-16T11:12:48.476Z,25.70
2022-12-16T11:15:43.867Z,26.13
2022-12-16T11:18:40.537Z,24.65
2022-12-16T11:21:32.084Z,26.30
2022-12-16T11:24:29.843Z,26.05
2022-12-16T11:27:17.539Z,26.48
2022-12-16T11:30:14.023Z,24.92
2022-12-16T11:33:04.438Z,24.35
2022-12-16T11:35:52.611Z,25.50
2022-12-16T11:38:42.832Z,27.23
2022-12-16T11:41:40.165Z,30.30
2022-12-16T11:44:33.496Z,31.15
2022-12-16T11:47:18.679Z,25.85
2022-12-16T11:50:03.916Z,32.42
2022-12-16T11:52:50.906Z,30.30
2022-12-16T11:56:04.982Z,28.58
2022-12-16T11:58:57.529Z,29.80
2022-12-16T12:01:47.370Z,26.52
2022-12-16T12:04:33.106Z,32.90
2022-12-16T12:07:44.492Z,31.08
2022-12-16T12:10:47.527Z,31.20
2022-12-16T12:13:58.399Z,28.52
2022-12-16T12:16:57.411Z,29.30
2022-12-16T12:19:52.407Z,27.75
2022-12-16T12:22:47.264Z,22.90
2022-12-16T12:25:42.621Z,27.33
2022-12-16T12:28:39.424Z,27.65
2022-12-16T12:31:37.662Z,27.95
2022-12-16T12:34:34.436Z,28.40
2022-12-16T12:37:28.663Z,26.52
2022-12-16T12:40:26.518Z,25.45
2022-12-16T12:46:26.597Z,23.20
2022-12-16T12:49:20.332Z,21.17
2022-12-16T12:52:16.603Z,22.48
2022-12-16T12:55:11.062Z,22.58
2022-12-16T12:57:59.537Z,21.30
2022-12-16T13:00:48.187Z,19.80
2022-12-16T13:03:42.855Z,22.17
2022-12-16T13:06:29.376Z,24.50
2022-12-16T13:09:17.658Z,46.33
2022-12-16T13:12:38.367Z,21.27
2022-12-16T13:15:25.339Z,21.08
2022-12-16T13:18:38.992Z,18.55
2022-12-16T13:22:02.586Z,18.58
2022-12-16T13:25:05.219Z,17.40
2022-12-16T13:28:08.961Z,17.77
2022-12-16T13:30:54.856Z,20.08
2022-12-16T13:33:43.608Z,17.83
2022-12-16T13:36:31.227Z,19.40
2022-12-16T13:39:22.798Z,17.80
2022-12-16T13:42:17.854Z,18.65
2022-12-16T13:45:16.888Z,14.02
2022-12-16T13:48:20.993Z,13.00
2022-12-16T13:51:09.112Z,14.80
2022-12-16T13:54:01.654Z,11.32
2022-12-16T13:56:53.109Z,11.77
2022-12-16T13:59:44.166Z,12.00
2022-12-16T14:02:46.068Z,14.27
2022-12-16T14:05:39.205Z,13.43
2022-12-16T14:08:29.578Z,14.15
2022-12-16T14:11:19.565Z,13.70
2022-12-16T14:14:11.768Z,11.02
2022-12-16T14:17:10.212Z,11.57
2022-12-16T14:20:11.983Z,12.07
2022-12-16T14:23:32.534Z,12.50
2022-12-16T14:26:27.275Z,13.80
2022-12-16T14:29:13.612Z,16.23
2022-12-16T14:32:02.121Z,52.60
2022-12-16T14:34:50.115Z,15.50
2022-12-16T14:37:37.119Z,13.98
2022-12-16T14:40:24.919Z,15.23
2022-12-16T14:43:12.979Z,14.15
2022-12-16T14:46:07.203Z,13.65
2022-12-16T14:48:56.625Z,13.65
2022-12-16T14:51:47.602Z,12.88
2022-12-16T14:54:42.906Z,13.52
2022-12-16T14:57:31.858Z,12.32
2022-12-16T15:00:33.175Z,13.00
2022-12-16T15:03:24.118Z,13.65
2022-12-16T15:06:11.916Z,12.20
2022-12-16T15:09:07.144Z,12.50
2022-12-16T15:11:55.672Z,11.37
2022-12-16T15:14:48.347Z,10.88
2022-12-16T15:17:41.568Z,11.88
2022-12-16T15:20:36.758Z,12.60
2022-12-16T15:23:34.676Z,9.27
2022-12-16T15:26:20.593Z,12.05
2022-12-16T15:31:52.833Z,11.52
2022-12-16T15:34:44.828Z,11.85
2022-12-16T15:37:37.030Z,12.65
2022-12-16T15:40:36.596Z,11.63
2022-12-16T15:43:22.671Z,11.02
2022-12-16T15:46:09.256Z,11.55
2022-12-16T15:48:56.312Z,10.98
2022-12-16T15:51:48.187Z,9.43
2022-12-16T15:54:36.943Z,10.27
2022-12-16T15:57:46.242Z,9.73
2022-12-16T16:00:41.154Z,10.30
2022-12-16T16:03:45.849Z,10.95
2022-12-16T16:06:39.949Z,10.35
2022-12-16T16:09:32.758Z,11.15
2022-12-16T16:12:17.927Z,11.18
2022-12-16T16:15:04.726Z,11.95
2022-12-16T16:17:50.813Z,12.82
2022-12-16T16:20:37.407Z,11.57
2022-12-16T16:23:23.168Z,12.20
2022-12-16T16:26:08.472Z,13.13
2022-12-16T16:28:54.466Z,13.00
2022-12-16T16:31:41.394Z,12.48
2022-12-16T16:34:27.459Z,12.13
2022-12-16T16:37:14.996Z,12.95
2022-12-16T16:40:01.115Z,12.82
2022-12-16T16:42:47.309Z,14.73
2022-12-16T16:45:32.976Z,16.08
2022-12-16T16:48:28.561Z,16.17
2022-12-16T16:51:15.490Z,15.93
2022-12-16T16:54:01.725Z,16.27
2022-12-16T16:56:50.426Z,16.35
2022-12-16T16:59:36.411Z,14.68
2022-12-16T17:02:22.685Z,13.07
2022-12-16T17:05:09.661Z,14.07
2022-12-16T17:07:55.426Z,13.35
2022-12-16T17:10:40.878Z,12.82
2022-12-16T17:13:28.092Z,13.43
2022-12-16T17:16:14.065Z,11.23
2022-12-16T17:19:00.039Z,11.68
2022-12-16T17:21:47.668Z,11.25
2022-12-16T17:24:32.897Z,12.32
2022-12-16T17:27:26.483Z,11.65
2022-12-16T17:30:12.081Z,12.88
2022-12-16T17:35:42.866Z,15.23
2022-12-16T17:38:31.478Z,14.68
2022-12-16T17:41:16.881Z,14.40
2022-12-16T17:44:02.633Z,14.77
2022-12-16T17:46:47.813Z,13.55
2022-12-16T17:49:29.701Z,13.30
2022-12-16T17:52:15.406Z,14.43
2022-12-16T17:55:02.629Z,13.85
2022-12-16T17:57:48.309Z,13.48
2022-12-16T18:00:34.678Z,13.95
2022-12-16T18:03:19.973Z,13.77
2022-12-16T18:06:06.301Z,12.90
2022-12-16T18:08:51.433Z,13.95
2022-12-16T18:11:38.974Z,13.60
2022-12-16T18:14:24.094Z,13.73
2022-12-16T18:17:09.864Z,16.25
2022-12-16T18:20:06.462Z,13.10
2022-12-16T18:22:52.614Z,14.65
2022-12-16T18:25:37.995Z,14.20
2022-12-16T18:28:25.112Z,13.52
2022-12-16T18:31:10.417Z,14.20
2022-12-16T18:33:56.159Z,16.55
2022-12-16T18:36:41.343Z,15.75
2022-12-16T18:39:27.014Z,15.57
2022-12-16T18:42:11.902Z,16.35
2022-12-16T18:45:01.268Z,15.45
2022-12-16T18:47:47.039Z,15.23
2022-12-16T18:50:37.487Z,15.52
2022-12-16T18:53:24.060Z,15.50
2022-12-16T18:56:18.546Z,16.58
2022-12-16T18:59:04.796Z,16.48
2022-12-16T19:01:52.412Z,17.20
2022-12-16T19:04:37.874Z,16.00
2022-12-16T19:07:23.920Z,17.58
2022-12-16T19:10:17.497Z,17.63
2022-12-16T19:13:03.401Z,16.95
2022-12-16T19:15:48.419Z,16.98
2022-12-16T19:18:36.414Z,18.50
2022-12-16T19:21:30.777Z,17.40
2022-12-16T19:24:16.627Z,17.60
2022-12-16T19:27:08.193Z,16.58
2022-12-16T19:30:00.134Z,14.20
2022-12-16T19:32:45.478Z,18.15
2022-12-16T19:35:32.868Z,18.05
2022-12-16T19:38:18.139Z,17.75
2022-12-16T19:41:10.372Z,17.73
2022-12-16T19:44:03.440Z,18.73
2022-12-16T19:46:51.611Z,16.95
2022-12-16T19:49:42.339Z,21.30
2022-12-16T19:52:31.513Z,20.15
2022-12-16T19:55:21.207Z,21.25
2022-12-16T19:58:06.869Z,21.73
2022-12-16T20:00:52.479Z,23.05
2022-12-16T20:03:39.919Z,22.77
2022-12-16T20:06:27.369Z,24.58
2022-12-16T20:09:15.553Z,23.75
2022-12-16T20:12:01.526Z,20.77
2022-12-16T20:14:47.408Z,22.50
2022-12-16T20:17:32.752Z,21.63
2022-12-16T20:20:18.205Z,19.88
2022-12-16T20:23:03.456Z,20.38
2022-12-16T20:25:50.695Z,18.02
2022-12-16T20:28:36.909Z,18.33
2022-12-16T20:31:23.787Z,19.60
2022-12-16T20:34:11.913Z,19.55
2022-12-16T20:36:58.067Z,19.75
2022-12-16T20:39:46.642Z,20.52
2022-12-16T20:42:36.975Z,20.95
2022-12-16T20:45:22.623Z,20.73
2022-12-16T20:48:09.559Z,22.55
2022-12-16T20:50:56.054Z,21.92
2022-12-16T20:53:43.369Z,22.02
2022-12-16T20:56:28.610Z,23.40
2022-12-16T20:59:15.994Z,20.35
2022-12-16T21:02:22.719Z,22.50
2022-12-16T21:05:07.088Z,21.27
2022-12-16T21:07:52.746Z,22.40
2022-12-16T21:10:39.542Z,21.42
2022-12-16T21:13:26.215Z,23.45
2022-12-16T21:16:15.562Z,22.38
2022-12-16T21:19:00.713Z,23.88
2022-12-16T21:21:46.375Z,24.02
2022-12-16T21:24:31.878Z,23.27
2022-12-16T21:30:02.561Z,22.20
2022-12-16T21:32:49.548Z,24.15
2022-12-16T21:35:35.429Z,25.20
2022-12-16T21:38:29.621Z,23.73
2022-12-16T21:41:15.047Z,22.35
2022-12-16T21:46:46.161Z,21.60
2022-12-16T21:52:17.895Z,22.92
2022-12-16T21:55:03.643Z,22.80
2022-12-16T21:57:48.608Z,22.95
2022-12-16T22:00:35.595Z,24.45
2022-12-16T22:03:20.750Z,22.48
2022-12-16T22:06:07.621Z,23.27
2022-12-16T22:08:53.191Z,24.10
2022-12-16T22:11:41.299Z,23.85
2022-12-16T22:14:26.556Z,22.70
2022-12-16T22:17:12.325Z,21.55
2022-12-16T22:19:57.301Z,22.55
2022-12-16T22:22:44.113Z,22.52
2022-12-16T22:25:29.524Z,23.42
2022-12-16T22:31:00.273Z,22.33
2022-12-16T22:33:45.761Z,21.83
2022-12-16T22:42:04.575Z,21.48
2022-12-16T22:44:50.455Z,21.60
2022-12-16T22:47:35.659Z,22.13
2022-12-16T22:50:22.187Z,22.02
2022-12-16T22:53:07.940Z,21.48
2022-12-16T22:55:58.718Z,22.27
2022-12-16T22:58:47.051Z,23.17
2022-12-16T23:01:32.228Z,20.88
2022-12-16T23:04:17.493Z,20.33
2022-12-16T23:07:02.892Z,20.92
2022-12-16T23:09:48.018Z,20.52
2022-12-16T23:12:34.970Z,21.48
2022-12-16T23:15:20.487Z,21.60
2022-12-16T23:20:51.614Z,20.48
2022-12-16T23:23:38.145Z,21.30
2022-12-16T23:26:38.086Z,22.00
2022-12-16T23:29:25.635Z,21.75
2022-12-16T23:32:11.254Z,21.70
2022-12-16T23:34:59.648Z,21.60
2022-12-16T23:37:44.653Z,23.45
2022-12-16T23:40:30.700Z,23.00
2022-12-16T23:43:15.720Z,22.85
2022-12-16T23:46:03.407Z,21.85
2022-12-16T23:48:48.830Z,21.65
2022-12-16T23:51:34.160Z,20.55
2022-12-16T23:54:19.184Z,20.70
2022-12-16T23:57:05.035Z,20.08
2022-12-16T23:59:50.108Z,19.73
